Time;durP1;ratioP1;P1;durP2;ratioP2;P2;SDS_P1;SDS_P2;PMS_P1;PMS_P2;Temp;Humidity;BMP_temperature;BMP_pressure;BME280_temperature;BME280_humidity;BME280_pressure;Samples;Min_cycle;Max_cycle;Signal;HPM_P1;HPM_P2
2021/05/29 00:00:14;;;;;;;6.88;4.80;;;;;;;10.34;100.00;95986.22;1000738;29;20480;-79
2021/05/29 00:00:46;;;;;;;5.38;4.30;;;;;;;10.36;100.00;95987.72;1008449;29;20037;-80
2021/05/29 00:01:16;;;;;;;6.43;4.57;;;;;;;10.33;100.00;95980.09;1004723;29;20025;-80
2021/05/29 00:01:47;;;;;;;7.68;4.72;;;;;;;10.35;100.00;95982.59;1000954;29;20034;-79
2021/05/29 00:02:18;;;;;;;6.53;4.40;;;;;;;10.24;100.00;95964.34;1004555;29;20036;-80
2021/05/29 00:02:48;;;;;;;5.95;4.57;;;;;;;10.38;100.00;95980.41;1008522;29;20036;-79
2021/05/29 00:03:19;;;;;;;6.72;5.20;;;;;;;10.22;100.00;95969.81;1004661;29;20105;-81
2021/05/29 00:03:50;;;;;;;7.50;4.50;;;;;;;10.31;100.00;95970.63;1004971;29;20033;-79
2021/05/29 00:04:21;;;;;;;7.13;4.90;;;;;;;10.40;100.00;95992.66;1004717;29;20033;-79
2021/05/29 00:04:51;;;;;;;6.38;4.72;;;;;;;10.37;100.00;95986.72;1004665;29;20033;-79
2021/05/29 00:05:22;;;;;;;6.03;4.38;;;;;;;10.41;100.00;95989.03;1000858;29;20086;-79
2021/05/29 00:05:53;;;;;;;5.97;4.85;;;;;;;10.38;100.00;95985.72;1008422;29;20029;-79
2021/05/29 00:06:23;;;;;;;8.88;3.97;;;;;;;10.36;100.00;95990.38;1004568;29;20053;-79
2021/05/29 00:06:54;;;;;;;6.43;4.78;;;;;;;10.38;100.00;95988.38;1004752;29;20033;-79
2021/05/29 00:07:24;;;;;;;7.30;4.97;;;;;;;10.26;100.00;95965.84;1004718;29;20029;-79
2021/05/29 00:07:55;;;;;;;6.68;4.70;;;;;;;10.21;100.00;95951.44;1008283;29;20089;-78
2021/05/29 00:08:26;;;;;;;6.82;5.07;;;;;;;10.40;100.00;95980.25;1004471;29;20034;-79
2021/05/29 00:08:56;;;;;;;6.05;4.93;;;;;;;10.32;100.00;95977.63;1008355;29;20115;-78
2021/05/29 00:09:27;;;;;;;5.18;4.32;;;;;;;10.24;100.00;95964.34;1004474;29;20132;-79
2021/05/29 00:09:58;;;;;;;6.65;5.22;;;;;;;10.27;100.00;95967.47;1008153;29;20025;-79
2021/05/29 00:10:29;;;;;;;6.97;4.85;;;;;;;10.33;100.00;95966.00;1004469;29;20017;-80
2021/05/29 00:11:00;;;;;;;7.55;4.80;;;;;;;10.34;100.00;95976.44;1008481;29;20474;-80
2021/05/29 00:11:30;;;;;;;5.60;4.43;;;;;;;10.37;100.00;95981.41;1004696;29;20025;-80
2021/05/29 00:12:01;;;;;;;6.47;5.00;;;;;;;10.37;100.00;95977.94;1004497;29;20035;-80
2021/05/29 00:12:32;;;;;;;6.93;5.10;;;;;;;10.34;100.00;95973.78;1000558;29;20519;-79
2021/05/29 00:13:03;;;;;;;6.07;4.32;;;;;;;10.26;100.00;95954.38;1000748;29;20029;-79
2021/05/29 00:13:34;;;;;;;7.82;5.10;;;;;;;10.22;100.00;95961.03;1008330;29;20039;-80
2021/05/29 00:14:04;;;;;;;6.45;4.93;;;;;;;10.33;100.00;95971.31;1000695;29;20058;-79
2021/05/29 00:14:37;;;;;;;9.27;4.57;;;;;;;10.14;100.00;95946.81;1004197;29;20033;-80
2021/05/29 00:15:08;;;;;;;7.22;4.75;;;;;;;10.23;100.00;95960.06;1000825;29;20388;-79
2021/05/29 00:15:39;;;;;;;5.85;4.63;;;;;;;10.24;100.00;95961.69;1000695;29;20041;-79
2021/05/29 00:16:10;;;;;;;6.78;4.80;;;;;;;10.21;100.00;95968.19;1004312;29;20042;-79
2021/05/29 00:16:41;;;;;;;7.75;5.13;;;;;;;10.16;100.00;95966.03;1008487;29;20025;-79
2021/05/29 00:17:11;;;;;;;6.38;4.70;;;;;;;10.21;100.00;95972.69;1004489;29;20026;-78
2021/05/29 00:17:42;;;;;;;5.82;4.45;;;;;;;10.12;100.00;95961.25;1008352;29;20025;-79
2021/05/29 00:18:13;;;;;;;8.15;4.90;;;;;;;10.06;100.00;95948.69;1004151;29;20047;-79
2021/05/29 00:18:43;;;;;;;6.05;4.60;;;;;;;10.18;100.00;95952.59;1008257;29;20017;-79
2021/05/29 00:19:14;;;;;;;7.53;5.32;;;;;;;10.32;100.00;95972.31;1000730;29;20022;-79
2021/05/29 00:19:45;;;;;;;6.90;5.10;;;;;;;10.35;100.00;95969.31;1000703;29;20014;-80
2021/05/29 00:20:15;;;;;;;5.97;4.32;;;;;;;10.25;100.00;95942.13;1000675;29;20022;-79
2021/05/29 00:20:46;;;;;;;6.93;4.85;;;;;;;10.40;100.00;95964.31;1004462;29;20018;-80
2021/05/29 00:21:17;;;;;;;6.65;4.53;;;;;;;10.44;100.00;95962.13;996932;29;20019;-79
2021/05/29 00:21:47;;;;;;;6.65;5.03;;;;;;;10.41;100.00;95968.59;997049;29;20018;-80
2021/05/29 00:22:18;;;;;;;7.85;4.60;;;;;;;10.40;100.00;95958.16;997018;29;20025;-78
2021/05/29 00:22:49;;;;;;;10.02;5.10;;;;;;;10.43;100.00;95955.16;996753;29;20027;-79
2021/05/29 00:23:19;;;;;;;6.13;4.70;;;;;;;10.46;100.00;95958.28;1000635;29;20085;-79
2021/05/29 00:23:50;;;;;;;6.28;4.50;;;;;;;10.09;100.00;95906.72;1008353;29;20089;-79
2021/05/29 00:24:21;;;;;;;6.28;5.13;;;;;;;10.43;100.00;95965.78;1004714;29;20025;-80
2021/05/29 00:24:51;;;;;;;7.70;5.00;;;;;;;10.45;100.00;95963.78;993046;29;20069;-80
2021/05/29 00:25:22;;;;;;;6.10;4.30;;;;;;;10.24;100.00;95932.50;1000801;29;20014;-80
2021/05/29 00:25:52;;;;;;;5.90;4.60;;;;;;;10.35;100.00;95959.50;1004817;29;20061;-79
2021/05/29 00:26:24;;;;;;;5.50;4.53;;;;;;;10.44;100.00;95970.09;1008665;29;20021;-79
2021/05/29 00:26:55;;;;;;;5.65;4.68;;;;;;;10.42;100.00;95957.00;1008521;29;20414;-78
2021/05/29 00:27:26;;;;;;;6.43;4.18;;;;;;;10.49;100.00;95971.22;1004579;29;20021;-79
2021/05/29 00:27:56;;;;;;;6.88;5.03;;;;;;;10.43;100.00;95955.97;1004536;29;20028;-80
2021/05/29 00:28:27;;;;;;;7.45;4.55;;;;;;;10.36;100.00;95945.25;1000805;29;20022;-79
2021/05/29 00:28:58;;;;;;;7.28;5.28;;;;;;;10.38;100.00;95953.88;1004429;29;20403;-78
2021/05/29 00:29:28;;;;;;;6.57;4.82;;;;;;;10.51;100.00;95973.72;1004368;29;20037;-78
2021/05/29 00:29:59;;;;;;;6.50;4.38;;;;;;;10.45;100.00;95977.03;1004538;29;20074;-79
2021/05/29 00:30:30;;;;;;;6.60;4.85;;;;;;;10.35;100.00;95966.66;1008462;29;20062;-79
2021/05/29 00:31:00;;;;;;;11.02;4.85;;;;;;;10.33;100.00;95966.84;1008185;29;20081;-79
2021/05/29 00:31:31;;;;;;;7.00;4.80;;;;;;;10.35;100.00;95980.75;1008252;29;20018;-79
2021/05/29 00:32:02;;;;;;;6.90;5.13;;;;;;;10.26;100.00;95972.97;1004786;29;20018;-79
2021/05/29 00:32:32;;;;;;;6.90;4.70;;;;;;;10.24;100.00;95967.84;1008332;29;20024;-79
2021/05/29 00:33:03;;;;;;;8.40;4.68;;;;;;;10.21;100.00;95968.19;1004367;29;20029;-79
2021/05/29 00:33:34;;;;;;;7.00;4.75;;;;;;;10.25;100.00;95973.97;1000632;29;20025;-79
2021/05/29 00:34:05;;;;;;;7.38;4.90;;;;;;;10.04;100.00;95940.06;1008262;29;20073;-79
2021/05/29 00:34:35;;;;;;;6.63;4.60;;;;;;;10.18;100.00;95966.69;1004358;29;20118;-79
2021/05/29 00:35:07;;;;;;;7.82;4.90;;;;;;;10.10;100.00;95966.75;1010324;29;20037;-79
2021/05/29 00:35:38;;;;;;;8.35;5.25;;;;;;;10.21;100.00;95978.81;1005896;29;20029;-78
2021/05/29 00:36:08;;;;;;;7.63;4.97;;;;;;;10.11;100.00;95968.38;1004951;29;20081;-79
2021/05/29 00:36:39;;;;;;;8.93;5.43;;;;;;;10.15;100.00;95968.88;1004923;29;20036;-79
2021/05/29 00:37:10;;;;;;;10.68;4.82;;;;;;;10.17;100.00;95973.03;1000606;29;20030;-80
2021/05/29 00:37:40;;;;;;;8.32;5.15;;;;;;;10.17;100.00;95972.16;1000658;29;20457;-79
2021/05/29 00:38:11;;;;;;;6.05;4.68;;;;;;;10.07;100.00;95963.63;1000681;29;20030;-79
2021/05/29 00:38:47;;;;;;;6.13;4.82;;;;;;;10.15;100.00;95975.03;1004602;29;20420;-79
2021/05/29 00:39:18;;;;;;;7.05;5.10;;;;;;;10.03;100.00;95954.31;1000498;29;20104;-79
2021/05/29 00:39:49;;;;;;;6.22;4.82;;;;;;;10.05;100.00;95962.94;1008161;29;20147;-78
2021/05/29 00:40:19;;;;;;;8.35;4.93;;;;;;;10.04;100.00;95966.59;996996;29;20030;-79
2021/05/29 00:40:50;;;;;;;6.97;4.60;;;;;;;10.09;100.00;95970.41;1000788;29;20036;-79
2021/05/29 00:41:20;;;;;;;7.40;4.85;;;;;;;10.10;100.00;95968.56;1000418;29;20030;-79
2021/05/29 00:41:51;;;;;;;8.23;4.53;;;;;;;10.09;100.00;95962.44;1000642;29;20025;-79
2021/05/29 00:42:22;;;;;;;8.25;4.90;;;;;;;10.09;100.00;95964.25;1000809;29;20022;-79
2021/05/29 00:42:52;;;;;;;7.68;4.97;;;;;;;10.14;100.00;95968.06;997058;29;20034;-79
2021/05/29 00:43:23;;;;;;;6.88;4.70;;;;;;;10.13;100.00;95965.56;1004425;29;20066;-80
2021/05/29 00:43:54;;;;;;;6.35;4.90;;;;;;;10.08;100.00;95971.38;1008336;29;20100;-79
2021/05/29 00:44:25;;;;;;;6.03;4.35;;;;;;;10.05;100.00;95954.97;1000512;29;20036;-78
2021/05/29 00:44:57;;;;;;;5.22;4.25;;;;;;;9.99;100.00;95954.66;1004694;29;20036;-78
2021/05/29 00:45:28;;;;;;;6.57;4.50;;;;;;;9.67;100.00;95901.78;1000522;29;20097;-79
2021/05/29 00:45:58;;;;;;;7.68;5.07;;;;;;;9.99;100.00;95975.88;1004451;29;20492;-79
2021/05/29 00:46:29;;;;;;;6.30;4.88;;;;;;;10.03;100.00;95968.41;1000654;29;20140;-78
2021/05/29 00:47:01;;;;;;;5.93;4.60;;;;;;;10.03;100.00;95960.44;1004563;29;20025;-79
2021/05/29 00:47:31;;;;;;;5.88;4.25;;;;;;;10.14;100.00;95967.22;1004299;29;20185;-79
2021/05/29 00:48:03;;;;;;;6.78;4.07;;;;;;;10.16;100.00;95971.34;1000437;29;20489;-79
2021/05/29 00:48:34;;;;;;;6.10;4.20;;;;;;;10.26;100.00;95976.47;1008306;29;20029;-79
2021/05/29 00:49:04;;;;;;;6.20;4.30;;;;;;;10.28;100.00;95977.09;1004616;29;20041;-79
2021/05/29 00:49:35;;;;;;;6.13;4.22;;;;;;;10.26;100.00;95965.84;1000466;29;20033;-78
2021/05/29 00:50:10;;;;;;;6.50;4.13;;;;;;;10.29;100.00;95978.78;1004325;29;20037;-79
2021/05/29 00:50:48;;;;;;;6.18;4.07;;;;;;;10.22;100.00;95964.53;1000699;29;20033;-79
2021/05/29 00:51:18;;;;;;;5.10;4.22;;;;;;;10.33;100.00;95977.44;1008284;29;20021;-79
2021/05/29 00:51:49;;;;;;;6.63;4.50;;;;;;;10.33;100.00;95976.63;1008164;29;20048;-79
2021/05/29 00:52:20;;;;;;;5.28;4.00;;;;;;;10.39;100.00;95978.56;1008382;29;20029;-78
2021/05/29 00:52:51;;;;;;;5.57;4.07;;;;;;;10.27;100.00;95954.22;1008356;29;20021;-79
2021/05/29 00:53:21;;;;;;;5.18;4.00;;;;;;;10.43;100.00;95977.22;1008294;29;20025;-79
2021/05/29 00:53:54;;;;;;;5.63;4.22;;;;;;;10.45;100.00;95974.38;1004339;29;20036;-79
2021/05/29 00:54:24;;;;;;;5.55;4.20;;;;;;;10.25;100.00;95937.63;996642;29;20134;-79
2021/05/29 00:54:55;;;;;;;5.00;4.10;;;;;;;10.41;100.00;95965.13;1000646;29;20453;-79
2021/05/29 00:55:26;;;;;;;5.10;4.10;;;;;;;10.48;100.00;95971.41;1008272;29;20029;-79
2021/05/29 00:55:57;;;;;;;5.43;4.00;;;;;;;10.45;100.00;95979.69;1008157;29;20511;-79
2021/05/29 00:56:27;;;;;;;6.03;4.53;;;;;;;10.42;100.00;95967.63;1004521;29;20087;-79
2021/05/29 00:56:58;;;;;;;7.13;4.55;;;;;;;10.43;100.00;95966.59;1004586;29;20098;-80
2021/05/29 00:57:29;;;;;;;6.10;3.67;;;;;;;10.40;100.00;95971.44;1008365;29;20448;-80
2021/05/29 00:57:59;;;;;;;6.65;4.47;;;;;;;10.40;100.00;95964.31;1004222;29;20025;-78
2021/05/29 00:58:30;;;;;;;7.80;4.70;;;;;;;10.45;100.00;95966.44;1004444;29;20021;-79
2021/05/29 00:59:02;;;;;;;5.78;3.85;;;;;;;10.46;100.00;95971.56;1000929;29;20022;-80
2021/05/29 00:59:32;;;;;;;5.43;3.67;;;;;;;10.48;100.00;95968.75;1000695;29;20029;-79
2021/05/29 01:00:04;;;;;;;4.82;3.67;;;;;;;10.45;100.00;95969.06;1004362;29;20029;-78
2021/05/29 01:00:35;;;;;;;4.95;4.10;;;;;;;10.42;100.00;95966.78;996930;29;20022;-79
2021/05/29 01:01:06;;;;;;;6.70;4.47;;;;;;;10.42;100.00;95970.28;1008281;29;20494;-79
2021/05/29 01:01:36;;;;;;;6.80;4.28;;;;;;;10.42;100.00;95964.16;1004625;29;20506;-80
2021/05/29 01:02:08;;;;;;;5.13;3.83;;;;;;;10.43;100.00;95968.44;1004885;29;20022;-80
2021/05/29 01:02:38;;;;;;;5.88;4.20;;;;;;;10.23;100.00;95942.28;997388;29;20037;-79
2021/05/29 01:03:09;;;;;;;6.38;4.43;;;;;;;10.44;100.00;95970.91;1005245;29;20026;-78
2021/05/29 01:03:40;;;;;;;4.93;3.65;;;;;;;10.26;100.00;95935.81;1001537;29;20040;-80
2021/05/29 01:04:11;;;;;;;5.75;3.50;;;;;;;10.40;100.00;95961.66;1001372;29;20040;-79
2021/05/29 01:04:42;;;;;;;5.15;4.10;;;;;;;10.40;100.00;95955.50;993752;29;20026;-79
2021/05/29 01:05:13;;;;;;;6.20;4.13;;;;;;;10.28;100.00;95941.78;1001419;29;20034;-80
2021/05/29 01:05:45;;;;;;;5.82;3.75;;;;;;;10.23;100.00;95933.53;997639;29;20442;-79
2021/05/29 01:06:15;;;;;;;5.88;4.20;;;;;;;10.37;100.00;95964.66;1001295;29;20025;-80
2021/05/29 01:06:46;;;;;;;4.90;3.70;;;;;;;10.31;100.00;95952.91;997592;29;20034;-79
2021/05/29 01:07:17;;;;;;;5.18;3.75;;;;;;;10.27;100.00;95951.56;1005195;29;20029;-79
2021/05/29 01:07:48;;;;;;;6.88;4.22;;;;;;;9.98;100.00;95905.28;1001393;29;20029;-79
2021/05/29 01:08:19;;;;;;;5.18;3.90;;;;;;;10.29;100.00;95951.38;1004832;29;20030;-79
2021/05/29 01:08:49;;;;;;;4.40;3.33;;;;;;;10.25;100.00;95950.91;1001693;29;20033;-79
2021/05/29 01:09:20;;;;;;;4.15;3.70;;;;;;;10.34;100.00;95963.16;1005144;29;20048;-79
2021/05/29 01:09:51;;;;;;;4.55;3.80;;;;;;;10.21;100.00;95932.88;1005259;29;20766;-80
2021/05/29 01:10:22;;;;;;;5.65;4.22;;;;;;;10.27;100.00;95951.56;1005078;29;20038;-79
2021/05/29 01:10:53;;;;;;;4.80;3.88;;;;;;;10.22;100.00;95937.97;1005144;29;20064;-80
2021/05/29 01:11:23;;;;;;;4.90;4.00;;;;;;;10.32;100.00;95959.84;1001437;29;20041;-79
2021/05/29 01:11:54;;;;;;;6.18;4.07;;;;;;;10.24;100.00;95956.38;1001325;29;20486;-79
2021/05/29 01:12:25;;;;;;;6.22;4.05;;;;;;;10.24;100.00;95953.72;1005021;29;20441;-80
2021/05/29 01:12:58;;;;;;;6.22;4.40;;;;;;;10.24;100.00;95953.72;1004957;29;20025;-80
2021/05/29 01:13:32;;;;;;;4.70;3.67;;;;;;;10.22;100.00;95951.25;1001251;29;20046;-78
2021/05/29 01:14:03;;;;;;;5.68;3.80;;;;;;;10.18;100.00;95942.81;1005217;29;20074;-80
2021/05/29 01:14:34;;;;;;;5.25;4.25;;;;;;;10.27;100.00;95956.88;1004939;29;20079;-79
2021/05/29 01:15:07;;;;;;;5.85;4.03;;;;;;;10.22;100.00;95940.63;1004943;29;20025;-78
2021/05/29 01:15:47;;;;;;;6.63;4.15;;;;;;;10.27;100.00;95953.38;1001340;29;20026;-79
2021/05/29 01:16:41;;;;;;;;;;;;;;;10.26;100.00;95955.22;1001756;29;20054;-79
2021/05/29 01:17:08;;;;;;;5.68;3.83;;;;;;;10.15;100.00;95943.19;997402;29;19948;-79
2021/05/29 01:17:38;;;;;;;4.90;3.90;;;;;;;10.19;100.00;95955.09;997573;29;20074;-79
2021/05/29 01:18:11;;;;;;;5.43;3.80;;;;;;;9.94;100.00;95922.53;997426;29;20513;-79
2021/05/29 01:18:42;;;;;;;6.40;3.72;;;;;;;10.00;100.00;95931.63;997539;29;20022;-79
2021/05/29 01:19:13;;;;;;;4.93;4.10;;;;;;;10.08;100.00;95933.41;1004820;29;20021;-79
2021/05/29 01:19:43;;;;;;;7.07;4.05;;;;;;;10.14;100.00;95952.13;1005269;29;20029;-79
2021/05/29 01:20:14;;;;;;;5.75;4.13;;;;;;;10.14;100.00;95946.00;1005233;29;20030;-80
2021/05/29 01:20:45;;;;;;;5.65;3.85;;;;;;;10.15;100.00;95948.47;1001003;29;20025;-80
2021/05/29 01:21:16;;;;;;;5.50;3.97;;;;;;;10.05;100.00;95925.78;1001320;29;20028;-79
2021/05/29 01:21:47;;;;;;;6.50;3.67;;;;;;;10.01;100.00;95914.69;1009050;29;20024;-79
2021/05/29 01:22:39;;;;;;;7.85;4.30;;;;;;;10.16;100.00;95952.78;1005320;29;20021;-78
2021/05/29 01:23:09;;;;;;;5.40;3.88;;;;;;;10.18;100.00;95942.81;1004924;29;20024;-79
2021/05/29 01:23:40;;;;;;;5.07;3.97;;;;;;;9.96;100.00;95906.44;1001252;29;20033;-80
2021/05/29 01:24:11;;;;;;;5.63;3.85;;;;;;;10.13;100.00;95933.72;1005269;29;20085;-79
2021/05/29 01:24:41;;;;;;;7.72;3.80;;;;;;;10.09;100.00;95922.63;1005299;29;20526;-80
2021/05/29 01:25:18;;;;;;;6.28;4.25;;;;;;;10.23;100.00;95944.13;1005224;29;20033;-78
2021/05/29 01:25:49;;;;;;;6.22;4.03;;;;;;;10.20;100.00;95934.69;997598;29;20504;-79
2021/05/29 01:26:19;;;;;;;4.93;3.80;;;;;;;10.11;100.00;95925.13;1005240;29;20040;-79
2021/05/29 01:26:50;;;;;;;5.45;3.88;;;;;;;10.15;100.00;95926.41;1001292;29;20499;-79
2021/05/29 01:27:21;;;;;;;7.05;4.07;;;;;;;10.12;100.00;95926.75;1004952;29;20025;-79
2021/05/29 01:27:56;;;;;;;4.75;3.67;;;;;;;10.25;100.00;95942.94;997434;29;20026;-79
2021/05/29 01:28:29;;;;;;;5.63;3.50;;;;;;;10.20;100.00;95945.28;1001339;29;20041;-80
2021/05/29 01:28:59;;;;;;;5.57;4.00;;;;;;;10.07;100.00;95919.31;1005073;29;20048;-79
2021/05/29 01:29:30;;;;;;;6.82;4.63;;;;;;;9.99;100.00;95906.09;1001124;29;20029;-78
2021/05/29 01:30:01;;;;;;;4.75;3.70;;;;;;;10.24;100.00;95940.47;997493;29;20042;-79
2021/05/29 01:30:40;;;;;;;6.05;3.63;;;;;;;10.25;100.00;95945.59;1005502;29;20028;-78
2021/05/29 01:31:13;;;;;;;4.85;3.75;;;;;;;10.14;100.00;95930.09;1005295;29;20032;-78
2021/05/29 01:31:47;;;;;;;6.32;3.90;;;;;;;10.18;100.00;95932.19;1001574;29;20120;-80
2021/05/29 01:32:22;;;;;;;4.85;3.67;;;;;;;10.21;100.00;95944.31;1001590;29;20018;-78
2021/05/29 01:32:54;;;;;;;5.30;4.20;;;;;;;10.21;100.00;95936.34;1001436;29;20196;-79
2021/05/29 01:33:30;;;;;;;6.07;4.20;;;;;;;10.17;100.00;95924.41;1005265;29;20070;-78
2021/05/29 01:34:01;;;;;;;6.85;4.55;;;;;;;10.17;100.00;95929.72;1001773;29;20432;-79
2021/05/29 01:34:33;;;;;;;5.22;3.83;;;;;;;10.16;100.00;95933.38;1001437;29;20029;-79
2021/05/29 01:35:06;;;;;;;5.30;3.83;;;;;;;10.17;100.00;95930.56;997632;29;20022;-79
2021/05/29 01:35:37;;;;;;;5.18;4.03;;;;;;;9.99;100.00;95903.44;1008853;29;20052;-80
2021/05/29 01:36:10;;;;;;;5.47;4.18;;;;;;;10.11;100.00;95925.94;1001647;29;20045;-79
2021/05/29 01:36:40;;;;;;;5.93;4.15;;;;;;;10.21;100.00;95946.13;1009419;29;20029;-79
2021/05/29 01:37:11;;;;;;;5.45;4.22;;;;;;;10.10;100.00;95934.06;1009132;29;20032;-79
2021/05/29 01:37:42;;;;;;;4.78;4.00;;;;;;;10.18;100.00;95942.00;1001558;29;20391;-79
2021/05/29 01:38:14;;;;;;;7.00;4.00;;;;;;;9.95;100.00;95905.63;1006017;29;20021;-79
2021/05/29 01:38:44;;;;;;;6.95;3.80;;;;;;;10.17;100.00;95940.31;1010147;29;20009;-80
2021/05/29 01:39:15;;;;;;;6.10;3.90;;;;;;;10.17;100.00;95937.66;1006303;29;20104;-78
2021/05/29 01:39:46;;;;;;;5.78;3.80;;;;;;;10.08;100.00;95923.63;1013979;29;20021;-78
2021/05/29 01:40:16;;;;;;;5.72;4.20;;;;;;;10.15;100.00;95932.56;1010138;29;20046;-78
2021/05/29 01:40:47;;;;;;;5.13;3.80;;;;;;;10.10;100.00;95924.28;1014191;29;20013;-79
2021/05/29 01:41:19;;;;;;;8.13;4.05;;;;;;;9.93;100.00;95899.66;1006817;29;20482;-79
2021/05/29 01:41:51;;;;;;;5.80;4.60;;;;;;;10.01;100.00;95917.34;1009099;29;20411;-78
2021/05/29 01:42:21;;;;;;;6.60;4.32;;;;;;;9.95;100.00;95913.56;1005250;29;20499;-77
2021/05/29 01:42:52;;;;;;;5.22;4.15;;;;;;;9.90;100.00;95907.13;1005338;29;20026;-80
2021/05/29 01:43:22;;;;;;;5.88;4.25;;;;;;;9.97;100.00;95924.84;997766;29;20078;-79
2021/05/29 01:43:53;;;;;;;5.15;3.92;;;;;;;9.94;100.00;95919.03;1001299;29;20421;-79
2021/05/29 01:44:24;;;;;;;7.40;4.22;;;;;;;9.93;100.00;95915.56;1004927;29;20029;-79
2021/05/29 01:44:55;;;;;;;5.80;4.15;;;;;;;10.06;100.00;95944.19;1005246;29;20093;-80
2021/05/29 01:45:26;;;;;;;6.80;4.20;;;;;;;10.02;100.00;95928.81;1005104;29;20503;-80
2021/05/29 01:45:57;;;;;;;7.70;4.25;;;;;;;9.55;100.00;95857.06;1004957;29;20510;-78
2021/05/29 01:46:27;;;;;;;6.75;4.40;;;;;;;10.02;100.00;95926.97;1005122;29;20033;-78
2021/05/29 01:46:58;;;;;;;6.63;4.88;;;;;;;10.09;100.00;95945.69;1001462;29;20029;-78
2021/05/29 01:47:29;;;;;;;4.97;3.92;;;;;;;10.04;100.00;95924.16;1008861;29;20028;-79
2021/05/29 01:48:02;;;;;;;5.25;4.13;;;;;;;10.05;100.00;95925.78;997291;29;20668;-78
2021/05/29 01:48:35;;;;;;;5.18;4.28;;;;;;;10.05;100.00;95933.75;1001134;29;20389;-79
2021/05/29 01:49:05;;;;;;;7.53;4.25;;;;;;;10.09;100.00;95935.09;997419;29;20029;-79
2021/05/29 01:49:36;;;;;;;5.68;4.30;;;;;;;10.07;100.00;95929.13;1001150;29;20040;-78
2021/05/29 01:50:07;;;;;;;6.07;4.35;;;;;;;10.04;100.00;95917.00;997345;29;20031;-79
2021/05/29 01:50:48;;;;;;;5.70;4.15;;;;;;;9.90;100.00;95897.34;1001170;29;20026;-79
2021/05/29 01:51:22;;;;;;;8.88;4.28;;;;;;;10.07;100.00;95924.63;1005167;29;20099;-79
2021/05/29 01:51:53;;;;;;;6.55;4.30;;;;;;;9.89;100.00;95894.88;1001132;29;20053;-80
2021/05/29 01:52:43;;;;;;;6.55;4.47;;;;;;;10.08;100.00;95934.22;1008782;29;20032;-78
2021/05/29 01:53:15;;;;;;;6.63;4.78;;;;;;;10.07;100.00;95931.78;1001294;29;20028;-78
2021/05/29 01:53:46;;;;;;;5.97;4.47;;;;;;;9.98;100.00;95931.00;1005154;29;20416;-78
2021/05/29 01:54:17;;;;;;;7.38;4.43;;;;;;;9.93;100.00;95918.22;1008925;29;20028;-79
2021/05/29 01:54:47;;;;;;;8.35;4.90;;;;;;;10.03;100.00;95943.72;1004893;29;20480;-78
2021/05/29 01:55:21;;;;;;;7.00;4.43;;;;;;;9.96;100.00;95925.84;1008944;29;20056;-78
2021/05/29 01:55:51;;;;;;;5.22;4.28;;;;;;;9.84;100.00;95899.84;1001412;29;20447;-78
2021/05/29 01:56:22;;;;;;;7.13;4.22;;;;;;;9.82;100.00;95905.34;1004941;29;20028;-78
2021/05/29 01:56:54;;;;;;;5.85;4.32;;;;;;;9.88;100.00;95915.25;1004904;29;20026;-79
2021/05/29 01:57:24;;;;;;;5.55;4.43;;;;;;;10.02;100.00;95942.91;997538;29;20077;-79
2021/05/29 01:57:56;;;;;;;6.82;4.20;;;;;;;9.97;100.00;95927.47;997378;29;20049;-78
2021/05/29 01:58:26;;;;;;;5.32;4.32;;;;;;;10.02;100.00;95931.47;1004801;29;20056;-78
2021/05/29 01:58:57;;;;;;;5.32;3.70;;;;;;;9.90;100.00;95915.91;1004950;29;20034;-78
2021/05/29 01:59:27;;;;;;;6.25;4.40;;;;;;;10.06;100.00;95933.59;1001178;29;20029;-79
2021/05/29 01:59:58;;;;;;;5.50;3.95;;;;;;;9.94;100.00;95914.56;1008848;29;20025;-79
2021/05/29 02:00:29;;;;;;;5.60;4.50;;;;;;;10.06;100.00;95925.63;997375;29;20033;-79
2021/05/29 02:01:00;;;;;;;5.43;4.13;;;;;;;10.08;100.00;95928.94;1001055;29;20029;-80
2021/05/29 02:01:30;;;;;;;5.82;4.50;;;;;;;10.03;100.00;95922.50;1004928;29;20036;-79
2021/05/29 02:02:02;;;;;;;6.82;4.30;;;;;;;9.98;100.00;95934.47;1005088;29;20037;-79
2021/05/29 02:02:33;;;;;;;7.43;4.47;;;;;;;9.99;100.00;95928.13;1004916;29;20032;-78
2021/05/29 02:03:04;;;;;;;7.70;4.20;;;;;;;9.98;100.00;95921.19;997598;29;20422;-81
2021/05/29 02:03:36;;;;;;;6.22;4.53;;;;;;;9.98;100.00;95920.38;1009107;29;20108;-79
2021/05/29 02:04:07;;;;;;;6.30;4.45;;;;;;;10.06;100.00;95943.38;1005211;29;20074;-79
2021/05/29 02:04:37;;;;;;;5.75;4.53;;;;;;;9.89;100.00;95929.34;1004843;29;20094;-79
2021/05/29 02:05:19;;;;;;;6.05;4.60;;;;;;;10.04;100.00;95940.91;1001204;29;20102;-79
2021/05/29 02:05:49;;;;;;;7.35;4.72;;;;;;;10.03;100.00;95951.69;997399;29;20095;-80
2021/05/29 02:06:20;;;;;;;6.10;4.50;;;;;;;9.95;100.00;95926.03;1009046;29;20032;-79
2021/05/29 02:06:51;;;;;;;7.70;4.72;;;;;;;10.02;100.00;95947.38;1001092;29;20484;-79
2021/05/29 02:07:23;;;;;;;6.40;4.53;;;;;;;10.03;100.00;95949.03;1008787;29;20033;-80
2021/05/29 02:07:54;;;;;;;6.70;4.13;;;;;;;9.99;100.00;95941.41;1007186;29;20085;-79
2021/05/29 02:08:25;;;;;;;8.13;4.85;;;;;;;10.00;100.00;95939.59;1007908;29;20025;-80
2021/05/29 02:08:56;;;;;;;5.38;4.07;;;;;;;10.04;100.00;95950.69;1008050;29;20033;-79
2021/05/29 02:09:26;;;;;;;7.25;4.30;;;;;;;10.07;100.00;95955.66;1004307;29;20050;-79
2021/05/29 02:09:57;;;;;;;5.20;4.38;;;;;;;9.97;100.00;95935.44;1012863;29;20096;-80
2021/05/29 02:10:28;;;;;;;7.25;4.90;;;;;;;10.03;100.00;95938.41;1008982;29;20092;-80
2021/05/29 02:10:59;;;;;;;6.10;4.80;;;;;;;10.06;100.00;95940.72;1008784;29;20107;-79
2021/05/29 02:11:30;;;;;;;8.07;4.95;;;;;;;10.02;100.00;95936.78;1013051;29;20043;-79
2021/05/29 02:12:02;;;;;;;9.55;4.53;;;;;;;10.11;100.00;95952.47;1012998;29;20025;-79
2021/05/29 02:12:43;;;;;;;6.50;4.55;;;;;;;10.06;100.00;95949.50;1006609;29;20021;-79
2021/05/29 02:13:27;;;;;;;5.95;4.47;;;;;;;10.04;100.00;95930.28;1000904;29;20034;-79
2021/05/29 02:13:57;;;;;;;8.18;4.35;;;;;;;10.08;100.00;95942.19;997190;29;20484;-79
2021/05/29 02:14:28;;;;;;;5.05;3.92;;;;;;;10.14;100.00;95943.34;997561;29;20039;-80
2021/05/29 02:14:59;;;;;;;11.27;4.25;;;;;;;10.13;100.00;95944.34;997336;29;20038;-78
2021/05/29 02:15:34;;;;;;;4.97;4.25;;;;;;;9.92;100.00;95903.31;1001146;29;20032;-80
2021/05/29 02:16:05;;;;;;;7.03;4.63;;;;;;;10.12;100.00;95930.25;1005011;29;20032;-79
2021/05/29 02:16:36;;;;;;;6.03;4.70;;;;;;;10.02;100.00;95919.03;1001186;29;20073;-79
2021/05/29 02:17:06;;;;;;;5.80;4.22;;;;;;;10.12;100.00;95937.38;1000874;29;20552;-80
2021/05/29 02:17:37;;;;;;;6.15;4.50;;;;;;;9.95;100.00;95902.97;1001033;29;20018;-80
2021/05/29 02:18:09;;;;;;;7.00;4.72;;;;;;;10.14;100.00;95932.72;997999;29;20034;-78
2021/05/29 02:18:40;;;;;;;6.70;4.65;;;;;;;10.03;100.00;95920.66;1005367;29;20026;-79
2021/05/29 02:19:10;;;;;;;6.80;4.97;;;;;;;10.12;100.00;95940.88;1005557;29;20074;-79
2021/05/29 02:19:41;;;;;;;6.25;4.78;;;;;;;10.13;100.00;95939.03;1009193;29;20042;-79
2021/05/29 02:20:13;;;;;;;6.72;4.80;;;;;;;10.03;100.00;95927.78;1005396;29;20101;-79
2021/05/29 02:20:50;;;;;;;7.05;4.47;;;;;;;10.11;100.00;95935.72;1013342;29;20033;-79
2021/05/29 02:21:21;;;;;;;7.32;5.25;;;;;;;9.85;100.00;95898.88;1009278;29;20598;-79
2021/05/29 02:21:52;;;;;;;6.57;4.60;;;;;;;10.11;100.00;95938.38;1008802;29;20025;-78
2021/05/29 02:22:22;;;;;;;7.68;5.22;;;;;;;10.10;100.00;95944.69;1005835;29;20037;-78
2021/05/29 02:22:53;;;;;;;6.63;4.70;;;;;;;10.13;100.00;95939.03;1008255;29;20033;-80
2021/05/29 02:23:24;;;;;;;7.10;4.93;;;;;;;10.12;100.00;95943.53;1005089;29;20029;-79
2021/05/29 02:23:55;;;;;;;6.45;4.75;;;;;;;10.07;100.00;95945.03;1005334;29;20033;-80
2021/05/29 02:24:26;;;;;;;7.63;4.90;;;;;;;10.07;100.00;95943.22;1009052;29;20581;-79
2021/05/29 02:24:56;;;;;;;8.23;5.60;;;;;;;10.05;100.00;95937.25;1005136;29;20108;-79
2021/05/29 02:25:27;;;;;;;8.82;4.93;;;;;;;10.02;100.00;95934.13;1004919;29;20029;-80
2021/05/29 02:26:05;;;;;;;6.03;4.72;;;;;;;10.04;100.00;95940.06;1005033;29;20036;-80
2021/05/29 02:26:36;;;;;;;7.28;4.78;;;;;;;10.11;100.00;95947.16;1009215;29;20032;-80
2021/05/29 02:27:07;;;;;;;5.60;4.55;;;;;;;10.05;100.00;95950.53;1009339;29;20029;-80